Time;durP1;ratioP1;P1;durP2;ratioP2;P2;SDS_P1;SDS_P2;PMS_P1;PMS_P2;Temp;Humidity;BMP_temperature;BMP_pressure;BME280_temperature;BME280_humidity;BME280_pressure;Samples;Min_cycle;Max_cycle;Signal;HPM_P1;HPM_P2
2021/05/26 00:00:36;;;;;;;2.70;0.57;;;10.80;54.80;;;9.46;54.40;96271.38;5005598;28;20097;-71
2021/05/26 00:03:03;;;;;;;1.70;0.60;;;10.80;55.10;;;9.48;54.17;96264.13;4988123;28;20422;-71
2021/05/26 00:05:32;;;;;;;2.80;0.80;;;10.80;54.80;;;9.48;54.09;96254.44;5021289;28;20168;-71
2021/05/26 00:07:57;;;;;;;1.60;0.60;;;10.90;54.80;;;9.51;53.91;96259.38;4976982;28;20037;-71
2021/05/26 00:10:24;;;;;;;2.55;0.80;;;10.90;54.80;;;9.55;54.11;96264.25;5004198;28;20057;-71
2021/05/26 00:12:49;;;;;;;1.95;0.73;;;11.00;54.90;;;9.57;53.84;96252.56;4968471;28;20042;-71
2021/05/26 00:15:16;;;;;;;2.92;0.50;;;11.00;54.70;;;9.55;53.78;96253.75;5003781;28;20084;-71
2021/05/26 00:17:41;;;;;;;1.40;0.63;;;10.80;54.90;;;9.54;53.95;96247.69;4991761;28;20037;-71
2021/05/26 00:20:08;;;;;;;2.33;0.70;;;10.90;55.10;;;9.53;54.58;96238.19;4995198;28;20045;-71
2021/05/26 00:22:34;;;;;;;4.22;0.88;;;10.90;54.90;;;9.55;53.78;96243.25;4998762;28;20153;-71
2021/05/26 00:24:59;;;;;;;3.03;0.60;;;10.90;55.10;;;9.54;54.46;96236.38;5016493;28;20034;-71
2021/05/26 00:27:25;;;;;;;2.60;0.77;;;10.90;55.00;;;9.57;54.98;96233.38;4991493;28;20498;-71
2021/05/26 00:29:51;;;;;;;7.07;0.63;;;11.00;54.80;;;9.55;54.91;96230.94;4999884;28;20069;-71
2021/05/26 00:32:17;;;;;;;3.55;0.85;;;10.90;55.00;;;9.54;54.30;96229.31;5006961;28;20030;-71
2021/05/26 00:34:42;;;;;;;1.17;0.50;;;10.90;55.10;;;9.54;55.15;96237.19;5008581;28;20026;-71
2021/05/26 00:37:08;;;;;;;2.78;0.77;;;10.90;55.40;;;9.54;54.73;96231.13;5007109;28;20056;-71
2021/05/26 00:39:34;;;;;;;5.88;0.77;;;10.90;55.50;;;9.50;54.67;96231.47;4989519;28;20080;-71
2021/05/26 00:42:00;;;;;;;3.33;0.40;;;10.90;55.80;;;9.49;54.50;96223.75;5000129;28;20528;-71
2021/05/26 00:44:26;;;;;;;4.38;0.80;;;10.80;55.90;;;9.48;55.07;96227.38;4999809;28;20029;-71
2021/05/26 00:46:52;;;;;;;2.40;0.77;;;10.80;55.90;;;9.46;54.54;96216.22;4991050;28;20529;-71
2021/05/26 00:49:17;;;;;;;1.63;0.60;;;10.80;55.90;;;9.45;54.83;96222.47;5007959;28;20038;-71
2021/05/26 00:51:43;;;;;;;2.40;0.80;;;10.80;56.10;;;9.44;55.42;96215.59;5007399;28;20573;-71
2021/05/26 00:54:09;;;;;;;3.17;0.70;;;10.80;56.20;;;9.44;55.82;96218.22;4963098;28;20101;-71
2021/05/26 00:56:35;;;;;;;2.90;0.70;;;10.80;56.10;;;9.42;54.78;96201.84;4994060;28;20026;-72
2021/05/26 00:59:02;;;;;;;1.02;0.50;;;10.80;55.50;;;9.44;55.06;96210.34;5004613;28;20037;-71
2021/05/26 01:01:28;;;;;;;2.47;0.68;;;10.80;55.60;;;9.44;55.39;96210.34;5006373;28;20034;-70
2021/05/26 01:03:57;;;;;;;4.47;0.80;;;10.80;55.60;;;9.45;55.25;96207.53;5007525;28;20450;-71
2021/05/26 01:06:23;;;;;;;2.13;0.60;;;10.80;55.40;;;9.46;54.76;96197.84;5008163;28;20034;-71
2021/05/26 01:08:49;;;;;;;2.22;0.80;;;10.80;55.40;;;9.47;54.71;96195.03;4990459;28;20132;-71
2021/05/26 01:11:15;;;;;;;1.27;0.55;;;10.80;55.40;;;9.47;55.22;96191.59;5005224;28;20421;-71
2021/05/26 01:13:40;;;;;;;3.40;0.60;;;10.90;55.30;;;9.46;55.08;96192.59;4995692;28;20069;-71
2021/05/26 01:16:06;;;;;;;2.35;0.70;;;10.80;55.40;;;9.47;55.28;96189.78;5001683;28;20049;-71
2021/05/26 01:18:34;;;;;;;4.15;0.60;;;10.90;55.50;;;9.45;55.05;96185.72;4999751;28;20108;-71
2021/05/26 01:21:02;;;;;;;1.60;0.60;;;10.80;55.80;;;9.43;55.97;96188.53;5005677;28;20462;-72
2021/05/26 01:23:28;;;;;;;2.38;0.90;;;10.80;56.00;;;9.42;55.66;96180.84;5009866;28;20038;-71
2021/05/26 01:25:56;;;;;;;1.58;0.50;;;10.80;55.90;;;9.41;56.17;96184.47;4995217;28;20049;-71
2021/05/26 01:28:23;;;;;;;1.83;0.77;;;10.80;56.00;;;9.39;55.60;96178.56;5007582;28;20595;-71
2021/05/26 01:30:48;;;;;;;2.33;0.68;;;10.80;56.20;;;9.40;55.74;96180.19;4977371;28;20129;-71
2021/05/26 01:33:14;;;;;;;1.50;0.50;;;10.90;56.20;;;9.40;56.16;96180.19;5006046;28;20564;-71
2021/05/26 01:35:41;;;;;;;3.53;0.60;;;10.80;56.50;;;9.37;55.56;96172.69;4994637;28;20034;-71
2021/05/26 01:38:07;;;;;;;2.40;0.75;;;10.80;56.60;;;9.35;56.32;96174.69;5018080;28;20037;-71
2021/05/26 01:40:33;;;;;;;3.15;0.85;;;10.80;56.40;;;9.34;55.45;96170.44;5030971;28;20029;-71
2021/05/26 01:42:59;;;;;;;2.70;0.52;;;10.80;56.50;;;9.32;56.27;96169.78;5013238;28;20528;-70
2021/05/26 01:45:24;;;;;;;2.15;0.50;;;10.80;56.60;;;9.29;55.99;96170.16;4999662;28;20116;-70
2021/05/26 01:47:50;;;;;;;2.70;0.63;;;10.80;56.60;;;9.24;56.30;96167.22;5009535;28;20534;-71
2021/05/26 01:50:20;;;;;;;2.00;0.60;;;10.60;56.50;;;9.17;55.88;96162.69;4983301;28;20034;-70
2021/05/26 01:52:57;;;;;;;2.47;0.60;;;10.50;56.80;;;9.13;57.04;96160.63;4994844;28;20053;-70
2021/05/26 01:55:23;;;;;;;2.03;0.95;;;10.50;57.10;;;9.08;55.98;96157.72;4996425;28;20041;-71
2021/05/26 01:57:49;;;;;;;3.05;0.90;;;10.40;57.30;;;9.06;56.04;96149.22;4975170;28;20416;-71
2021/05/26 02:00:17;;;;;;;2.08;0.57;;;10.40;57.50;;;9.03;56.41;96150.34;5010853;28;20081;-71
2021/05/26 02:02:43;;;;;;;3.53;0.60;;;10.30;57.50;;;9.00;56.56;96145.47;4984148;28;20034;-71
2021/05/26 02:05:09;;;;;;;2.20;0.60;;;10.40;57.60;;;8.98;56.71;96147.47;5014179;28;20093;-72
2021/05/26 02:07:35;;;;;;;5.82;0.80;;;10.40;57.50;;;8.98;56.25;96157.13;4993464;28;20052;-70
2021/05/26 02:10:02;;;;;;;2.97;0.88;;;10.30;57.60;;;8.96;56.66;96149.44;5004115;28;20030;-69
2021/05/26 02:12:32;;;;;;;3.35;0.60;;;10.40;57.40;;;8.96;57.05;96154.69;5008645;28;20030;-70
2021/05/26 02:15:00;;;;;;;1.80;0.60;;;10.30;57.40;;;8.93;56.91;96149.81;5006410;28;20030;-69
2021/05/26 02:17:26;;;;;;;2.00;0.60;;;10.30;57.40;;;8.93;56.98;96155.03;4996967;28;20417;-69
2021/05/26 02:19:52;;;;;;;2.00;0.60;;;10.30;57.40;;;8.92;56.12;96150.78;4993774;28;20382;-70
2021/05/26 02:22:18;;;;;;;3.38;1.02;;;10.30;57.30;;;8.91;57.12;96146.53;4990741;28;20080;-69
2021/05/26 02:24:45;;;;;;;2.63;0.80;;;10.30;57.30;;;8.90;56.41;96142.28;4985900;28;20030;-69
2021/05/26 02:27:11;;;;;;;3.15;1.40;;;10.30;57.40;;;8.90;56.92;96139.66;4994155;28;20049;-70
2021/05/26 02:29:37;;;;;;;1.65;0.70;;;10.30;57.30;;;8.90;56.49;96137.03;4996038;28;20078;-69
2021/05/26 02:32:04;;;;;;;2.17;0.80;;;10.30;57.10;;;8.90;56.32;96134.41;5009327;28;20060;-70
2021/05/26 02:34:29;;;;;;;1.77;0.75;;;10.30;57.10;;;8.92;57.20;96132.44;5002507;28;20034;-69
2021/05/26 02:36:55;;;;;;;1.13;0.60;;;10.30;57.40;;;8.95;56.39;96131.25;5000679;28;20037;-70
2021/05/26 02:39:21;;;;;;;3.17;0.70;;;10.40;57.10;;;8.92;56.82;96126.38;4990382;28;20105;-69
2021/05/26 02:41:47;;;;;;;2.40;0.52;;;10.30;57.60;;;8.90;57.07;96122.13;4987995;28;20041;-68
2021/05/26 02:44:12;;;;;;;1.35;0.85;;;10.30;58.30;;;8.89;57.27;96124.94;4977341;28;20052;-70
2021/05/26 02:46:38;;;;;;;1.35;0.68;;;10.20;58.40;;;8.87;57.23;96125.09;5010040;28;20061;-69
2021/05/26 02:49:07;;;;;;;2.65;0.60;;;10.30;58.20;;;8.88;58.08;96118.03;5002487;28;20038;-69
2021/05/26 02:51:33;;;;;;;1.42;0.57;;;10.30;58.10;;;8.86;57.20;96118.22;4998091;28;20042;-69
2021/05/26 02:54:00;;;;;;;3.67;0.70;;;10.30;57.80;;;8.85;57.10;96115.78;4975326;28;20383;-69
2021/05/26 02:56:25;;;;;;;3.80;0.80;;;10.20;57.80;;;8.84;57.35;96119.41;4978108;28;20402;-69
2021/05/26 02:58:51;;;;;;;1.30;0.63;;;10.30;57.70;;;8.83;57.09;96112.53;4973412;28;20104;-70
2021/05/26 03:01:17;;;;;;;3.22;0.70;;;10.20;57.50;;;8.78;57.45;96106.97;5013065;28;20034;-70
2021/05/26 03:03:43;;;;;;;2.25;0.60;;;10.10;57.60;;;8.77;57.38;96107.97;4985170;28;20041;-70
2021/05/26 03:06:08;;;;;;;5.82;0.80;;;10.10;57.30;;;8.72;57.32;96105.06;5008978;28;20092;-71
2021/05/26 03:08:34;;;;;;;1.30;0.60;;;10.10;57.50;;;8.69;56.87;96101.00;5009331;28;20046;-71
2021/05/26 03:11:00;;;;;;;5.35;0.60;;;10.10;57.50;;;8.70;56.95;96104.44;4983341;28;20037;-71
2021/05/26 03:13:26;;;;;;;3.30;0.50;;;10.10;57.60;;;8.67;56.97;96097.75;4991450;28;20091;-71
2021/05/26 03:15:52;;;;;;;1.85;0.57;;;10.00;57.80;;;8.67;57.48;96102.16;5009113;28;20034;-71
2021/05/26 03:18:19;;;;;;;1.30;0.43;;;10.10;57.90;;;8.61;57.26;96097.63;5009565;28;20413;-70
2021/05/26 03:20:44;;;;;;;1.98;0.70;;;9.90;58.10;;;8.59;57.25;96100.41;5007198;28;20042;-70
2021/05/26 03:23:10;;;;;;;2.70;0.68;;;10.00;58.20;;;8.58;57.77;96093.53;4986342;28;20052;-71
2021/05/26 03:25:36;;;;;;;2.83;0.80;;;10.00;58.10;;;8.54;57.36;96090.44;4992379;28;20053;-71
2021/05/26 03:28:02;;;;;;;2.60;0.85;;;9.90;58.20;;;8.53;57.21;96094.06;4999508;28;20074;-71
2021/05/26 03:30:28;;;;;;;1.58;0.60;;;9.90;58.20;;;8.51;57.61;96093.44;4974376;28;20060;-71
2021/05/26 03:32:53;;;;;;;1.95;0.70;;;9.80;58.60;;;8.48;57.76;96101.66;5000644;28;20033;-71
2021/05/26 03:35:19;;;;;;;1.05;0.43;;;9.80;58.80;;;8.46;58.02;96094.97;4993842;28;20038;-70
2021/05/26 03:37:45;;;;;;;2.67;0.90;;;9.80;58.90;;;8.44;57.79;96089.06;4978594;28;20045;-74
2021/05/26 03:40:13;;;;;;;1.95;0.60;;;9.80;59.80;;;8.46;58.74;96090.53;4975530;28;20038;-74
2021/05/26 03:42:40;;;;;;;1.73;0.80;;;9.90;59.50;;;8.52;58.26;96099.50;4984664;28;20475;-71
2021/05/26 03:45:07;;;;;;;1.55;0.70;;;10.00;58.60;;;8.53;57.95;96099.31;4997371;28;20034;-71
2021/05/26 03:47:33;;;;;;;2.17;0.65;;;10.10;58.30;;;8.57;57.94;96086.66;4992622;28;20117;-68
2021/05/26 03:49:59;;;;;;;3.28;0.90;;;10.10;58.30;;;8.61;57.87;96090.59;5007952;28;20401;-70
2021/05/26 03:52:25;;;;;;;1.45;0.70;;;10.20;58.20;;;8.61;58.54;96087.97;4991952;28;20416;-71
2021/05/26 03:54:51;;;;;;;2.25;0.70;;;10.20;58.20;;;8.62;58.28;96088.78;4995693;28;20022;-70
2021/05/26 03:57:17;;;;;;;1.27;0.52;;;10.10;58.60;;;8.63;58.32;96085.16;5008371;28;20057;-70
2021/05/26 03:59:42;;;;;;;2.22;0.68;;;10.10;58.70;;;8.62;58.50;96084.34;5007570;28;20096;-70
2021/05/26 04:02:08;;;;;;;3.78;1.02;;;10.10;58.70;;;8.66;58.24;96090.06;5004723;28;20046;-70
2021/05/26 04:04:37;;;;;;;3.05;0.57;;;10.20;58.50;;;8.72;58.72;96089.34;4982702;28;20034;-70
2021/05/26 04:07:03;;;;;;;2.28;0.70;;;10.30;58.20;;;8.75;58.21;96088.97;5008287;28;20132;-71
2021/05/26 04:09:29;;;;;;;1.25;0.57;;;10.40;58.00;;;8.81;58.29;96091.69;5007091;28;20041;-70
2021/05/26 04:11:54;;;;;;;2.33;0.65;;;10.50;57.80;;;8.85;58.23;96082.50;5009195;28;20115;-70
2021/05/26 04:14:20;;;;;;;2.70;0.70;;;10.50;57.80;;;8.92;58.30;96087.84;4989364;28;20033;-70
2021/05/26 04:16:46;;;;;;;4.50;0.75;;;10.60;57.90;;;8.97;58.57;96089.91;5005951;28;20108;-70
2021/05/26 04:19:12;;;;;;;3.25;0.77;;;10.70;57.80;;;9.03;58.28;96084.75;5008089;28;20444;-71
2021/05/26 04:21:38;;;;;;;1.58;0.60;;;10.70;57.20;;;9.06;57.91;96089.69;4987876;28;20101;-70
2021/05/26 04:24:04;;;;;;;3.03;0.73;;;10.70;57.60;;;9.08;57.82;96089.50;4993258;28;20041;-70
2021/05/26 04:26:30;;;;;;;2.45;0.60;;;10.70;57.50;;;9.11;57.99;96089.13;5007563;28;20521;-70
2021/05/26 04:28:56;;;;;;;2.80;1.10;;;10.70;57.70;;;9.15;57.99;96085.97;4991236;28;20050;-69
2021/05/26 04:31:22;;;;;;;1.55;0.60;;;10.80;57.30;;;9.20;58.54;96086.22;4972583;28;20064;-70
2021/05/26 04:33:48;;;;;;;2.80;0.90;;;10.90;57.20;;;9.23;58.55;96086.88;5000235;28;20045;-69
2021/05/26 04:36:14;;;;;;;2.78;0.98;;;10.80;57.50;;;9.26;58.31;96086.50;4988847;28;20030;-70
2021/05/26 04:38:39;;;;;;;3.25;1.02;;;10.90;57.70;;;9.25;58.18;96085.69;5004695;28;20406;-70
2021/05/26 04:41:05;;;;;;;3.78;0.70;;;10.90;57.90;;;9.28;58.15;96087.97;4995349;28;20513;-72
2021/05/26 04:43:31;;;;;;;2.90;0.63;;;10.80;57.70;;;9.26;57.83;96076.00;5006859;28;20037;-71
2021/05/26 04:45:57;;;;;;;2.13;0.50;;;10.80;58.10;;;9.33;57.68;96084.78;4995994;28;20474;-70
2021/05/26 04:48:23;;;;;;;4.38;0.70;;;11.00;57.60;;;9.36;58.37;96087.06;4988669;28;20039;-69
2021/05/26 04:50:49;;;;;;;1.65;0.80;;;11.10;57.80;;;9.39;58.03;96079.63;5007231;28;20421;-71
2021/05/26 04:53:14;;;;;;;2.08;0.93;;;11.10;58.00;;;9.42;59.03;96087.13;5008874;28;20034;-68
2021/05/26 04:55:40;;;;;;;3.50;1.13;;;11.10;58.20;;;9.45;58.93;96085.97;5011132;28;20034;-67
2021/05/26 04:58:07;;;;;;;3.70;0.82;;;11.10;58.30;;;9.49;59.12;96092.47;4993640;28;20429;-68
2021/05/26 05:00:33;;;;;;;2.65;0.73;;;11.10;58.50;;;9.52;58.88;96087.69;5027732;28;20519;-67
2021/05/26 05:02:59;;;;;;;2.95;0.80;;;11.20;58.60;;;9.58;59.34;96085.31;5009454;28;20058;-73
2021/05/26 05:05:31;;;;;;;2.90;0.70;;;11.30;58.40;;;9.63;59.05;96075.88;5008573;28;20065;-73
2021/05/26 05:07:57;;;;;;;2.92;0.88;;;11.40;57.90;;;9.67;59.31;96090.28;5009509;28;20041;-69
2021/05/26 05:10:23;;;;;;;1.67;0.90;;;11.40;58.30;;;9.75;58.55;96084.13;5011055;28;20038;-71
2021/05/26 05:12:49;;;;;;;2.20;1.00;;;11.50;58.10;;;9.80;59.10;96079.94;5008540;28;20091;-70
2021/05/26 05:15:15;;;;;;;3.40;0.70;;;11.60;58.10;;;9.91;58.46;96090.97;4991519;28;20026;-71
2021/05/26 05:17:40;;;;;;;3.35;1.10;;;11.80;57.60;;;9.95;59.37;96092.22;5014551;28;20161;-67
2021/05/26 05:20:07;;;;;;;2.55;0.65;;;11.70;57.60;;;9.99;58.27;96085.63;5000081;28;20026;-67
2021/05/26 05:22:32;;;;;;;4.60;0.80;;;11.70;57.40;;;10.03;57.65;96084.25;5019651;28;20493;-67
2021/05/26 05:24:58;;;;;;;1.88;0.95;;;11.60;56.70;;;10.08;58.83;96092.38;5012435;28;20092;-67
2021/05/26 05:27:24;;;;;;;4.93;2.03;;;11.80;56.60;;;10.10;58.49;96091.19;5010903;28;20034;-67
2021/05/26 05:29:49;;;;;;;7.50;3.17;;;11.70;56.40;;;10.15;57.98;96080.09;4995540;28;20108;-66
2021/05/26 05:32:15;;;;;;;9.80;3.72;;;11.90;56.50;;;10.21;58.71;96082.03;5008776;28;20034;-66
2021/05/26 05:34:42;;;;;;;8.68;3.03;;;11.90;56.70;;;10.25;58.69;96083.28;5010668;28;20050;-65
2021/05/26 05:37:09;;;;;;;5.43;2.13;;;12.00;56.20;;;10.34;57.99;96079.53;4989582;28;20513;-66
2021/05/26 05:39:34;;;;;;;4.43;1.45;;;12.20;56.10;;;10.42;58.11;96078.63;5013911;28;20061;-67
2021/05/26 05:42:00;;;;;;;2.70;1.05;;;12.30;55.50;;;10.53;57.33;96078.09;5023970;28;20033;-66
2021/05/26 05:44:26;;;;;;;2.63;0.80;;;12.50;55.30;;;10.62;56.96;96074.31;5016011;28;20038;-67
2021/05/26 05:46:52;;;;;;;1.73;0.60;;;12.60;55.10;;;10.67;57.76;96071.13;5016592;28;20104;-67
2021/05/26 05:49:17;;;;;;;1.60;0.50;;;12.50;55.00;;;10.73;57.15;96075.63;5002839;28;20402;-67
2021/05/26 05:51:43;;;;;;;2.42;0.70;;;12.60;55.00;;;10.79;57.72;96074.88;4963734;28;20051;-66
2021/05/26 05:54:09;;;;;;;2.75;0.60;;;12.60;54.80;;;10.87;57.02;96080.00;4995409;28;20034;-70
2021/05/26 05:56:35;;;;;;;1.50;0.47;;;12.60;54.50;;;10.92;57.52;96074.97;5017259;28;20037;-69
2021/05/26 05:59:01;;;;;;;1.77;0.60;;;12.70;54.20;;;11.00;57.08;96074.81;4994077;28;20176;-65
2021/05/26 06:01:26;;;;;;;2.08;0.55;;;12.80;54.30;;;11.07;56.01;96071.41;5007239;28;20117;-69
2021/05/26 06:03:52;;;;;;;1.45;0.40;;;12.80;53.60;;;11.11;56.01;96075.31;5008975;28;20038;-68
2021/05/26 06:06:18;;;;;;;5.10;0.80;;;12.90;53.90;;;11.17;56.49;96071.91;5009264;28;20064;-69
2021/05/26 06:08:43;;;;;;;4.85;0.93;;;13.00;53.70;;;11.20;57.02;96064.44;4993935;28;20049;-69
2021/05/26 06:11:09;;;;;;;2.60;0.50;;;13.00;54.00;;;11.28;56.70;96073.97;5022470;28;20110;-69
2021/05/26 06:13:35;;;;;;;3.85;2.22;;;13.10;54.30;;;11.35;55.96;96070.41;4999837;28;20512;-68
2021/05/26 06:16:01;;;;;;;1.00;0.60;;;13.20;53.70;;;11.41;55.59;96065.34;5006574;28;20065;-67
2021/05/26 06:18:26;;;;;;;2.42;0.60;;;13.20;53.10;;;11.46;56.28;96061.13;4993921;28;20431;-67
2021/05/26 06:20:52;;;;;;;2.05;0.80;;;13.40;53.40;;;11.59;56.38;96071.72;5010739;28;20133;-67
2021/05/26 06:23:18;;;;;;;1.55;0.80;;;13.70;53.00;;;11.69;56.30;96071.34;4995748;28;20034;-67
2021/05/26 06:25:44;;;;;;;1.58;0.60;;;13.70;52.10;;;11.81;55.46;96074.28;4992465;28;20858;-66
2021/05/26 06:28:09;;;;;;;3.40;0.70;;;13.80;51.50;;;11.88;55.36;96060.13;5014121;28;20050;-67
2021/05/26 06:30:35;;;;;;;3.17;0.60;;;13.90;51.20;;;11.95;55.38;96055.66;5016207;28;20034;-66
2021/05/26 06:33:01;;;;;;;3.03;0.75;;;14.00;51.10;;;12.06;55.26;96045.56;5020090;28;20042;-67
2021/05/26 06:35:27;;;;;;;3.00;0.90;;;14.00;50.30;;;12.16;55.18;96046.81;5008854;28;20026;-65
2021/05/26 06:37:53;;;;;;;6.50;3.22;;;14.10;49.70;;;12.24;54.25;96044.00;5001504;28;20030;-67
2021/05/26 06:40:18;;;;;;;9.60;5.90;;;14.20;49.70;;;12.36;53.90;96046.03;5007604;28;20449;-67
2021/05/26 06:42:44;;;;;;;3.35;1.10;;;14.40;50.30;;;12.46;54.50;96047.28;4997308;28;20039;-67
2021/05/26 06:45:11;;;;;;;1.33;0.68;;;14.50;49.60;;;12.55;54.31;96043.41;4999819;28;20034;-67
2021/05/26 06:47:37;;;;;;;2.17;0.60;;;14.60;50.00;;;12.66;54.25;96044.63;5003911;28;20046;-66
2021/05/26 06:50:03;;;;;;;3.15;1.00;;;14.70;49.40;;;12.75;53.31;96045.25;5009937;28;20049;-67
2021/05/26 06:52:31;;;;;;;2.42;0.73;;;14.70;48.30;;;12.81;53.23;96039.13;5010559;28;20034;-69
2021/05/26 06:54:57;;;;;;;4.60;0.85;;;14.80;47.70;;;12.92;53.36;96035.91;5013175;28;20025;-65
2021/05/26 06:57:23;;;;;;;2.63;0.77;;;15.00;48.80;;;13.02;53.45;96038.91;5009095;28;20137;-66
2021/05/26 06:59:48;;;;;;;15.43;8.57;;;15.10;48.70;;;13.17;53.59;96038.69;5008122;28;20060;-67
2021/05/26 07:02:14;;;;;;;2.55;1.17;;;15.50;48.50;;;13.31;53.10;96032.38;5003138;28;20034;-68
2021/05/26 07:04:40;;;;;;;2.28;0.73;;;15.60;46.20;;;13.44;52.63;96032.34;5007593;28;20399;-70
2021/05/26 07:07:05;;;;;;;1.90;0.60;;;15.80;44.90;;;13.63;52.30;96024.56;4981707;28;20058;-67
2021/05/26 07:09:31;;;;;;;5.43;1.27;;;16.40;45.30;;;13.89;52.37;96021.81;4988495;28;20195;-68
2021/05/26 07:11:57;;;;;;;3.75;1.00;;;16.80;44.70;;;14.19;52.26;96029.16;5003819;28;20063;-66
2021/05/26 07:14:23;;;;;;;1.55;0.60;;;17.10;43.50;;;14.44;51.26;96018.63;5000142;28;20062;-66
2021/05/26 07:16:48;;;;;;;1.80;0.63;;;17.30;42.20;;;14.69;52.01;96025.56;5003161;28;20039;-69
2021/05/26 07:19:14;;;;;;;2.20;0.50;;;17.60;41.90;;;14.98;50.52;96024.09;5001803;28;20042;-68
2021/05/26 07:21:40;;;;;;;0.95;0.50;;;17.70;39.90;;;15.18;49.62;96015.97;4997535;28;20042;-68
2021/05/26 07:24:07;;;;;;;4.75;1.70;;;17.80;40.30;;;15.36;49.29;96017.78;5013743;28;20475;-66
2021/05/26 07:26:33;;;;;;;2.97;1.75;;;18.00;40.00;;;15.57;49.33;96014.69;5013871;28;20034;-66
2021/05/26 07:28:59;;;;;;;3.83;2.35;;;18.20;40.00;;;15.77;49.34;96014.50;5008795;28;20045;-67
2021/05/26 07:31:24;;;;;;;4.65;2.67;;;18.30;39.80;;;15.92;47.88;96017.56;4990863;28;20041;-69
2021/05/26 07:33:52;;;;;;;3.03;0.95;;;18.40;38.20;;;15.98;46.68;96017.69;4978816;28;21464;-67
2021/05/26 07:36:18;;;;;;;1.77;0.43;;;18.10;38.30;;;15.98;46.42;96005.25;5008538;28;20045;-67
2021/05/26 07:38:44;;;;;;;1.95;0.52;;;18.10;39.20;;;16.03;45.44;96002.72;5004760;28;20100;-68
2021/05/26 07:41:10;;;;;;;1.60;0.52;;;18.20;38.80;;;16.20;46.17;95998.41;5005185;28;20060;-69
2021/05/26 07:43:36;;;;;;;2.00;0.55;;;18.80;37.80;;;16.31;46.07;95999.50;5027777;28;20475;-67
2021/05/26 07:46:02;;;;;;;1.52;0.60;;;18.70;38.40;;;16.44;45.36;95993.97;5009081;28;20508;-69
2021/05/26 07:48:32;;;;;;;2.58;0.88;;;18.90;37.10;;;16.67;44.52;95997.72;5009211;28;20042;-69
2021/05/26 07:50:57;;;;;;;3.15;1.35;;;19.30;36.90;;;16.83;45.02;95997.06;4973387;28;20045;-67
2021/05/26 07:53:23;;;;;;;5.00;2.72;;;19.60;37.10;;;17.06;45.19;95978.44;4989169;28;20034;-66
2021/05/26 07:55:49;;;;;;;1.92;0.40;;;19.80;37.30;;;17.25;44.94;95973.00;4996114;28;20117;-67
2021/05/26 07:58:15;;;;;;;3.95;0.68;;;20.00;35.90;;;17.37;44.77;95971.91;4992171;28;20069;-67
2021/05/26 08:00:40;;;;;;;1.10;0.50;;;19.80;37.20;;;17.51;44.18;95972.47;5005780;28;20041;-68
2021/05/26 08:03:06;;;;;;;3.45;0.50;;;20.00;35.90;;;17.60;44.22;95964.94;4999541;28;20092;-67
2021/05/26 08:05:32;;;;;;;3.28;0.80;;;20.30;35.70;;;17.74;43.24;95964.47;4990852;28;20233;-66
2021/05/26 08:07:58;;;;;;;3.95;1.10;;;20.50;34.90;;;17.84;43.34;95966.50;4990357;28;20034;-67
2021/05/26 08:10:24;;;;;;;3.45;2.25;;;20.20;35.40;;;17.83;42.86;95974.72;5007436;28;20060;-69
2021/05/26 08:12:50;;;;;;;1.58;0.98;;;20.00;36.10;;;17.79;43.37;95969.06;4991624;28;20438;-70
2021/05/26 08:15:16;;;;;;;1.38;0.50;;;19.90;36.90;;;17.74;43.41;95956.47;5008318;28;20058;-68
2021/05/26 08:17:42;;;;;;;0.77;0.43;;;19.70;37.40;;;17.69;43.45;95963.56;5000933;28;20532;-66
2021/05/26 08:20:09;;;;;;;1.10;0.60;;;19.80;37.50;;;17.64;42.50;95960.75;4991556;28;20057;-67
2021/05/26 08:22:35;;;;;;;2.80;0.73;;;19.60;35.80;;;17.51;42.54;95961.03;4990845;28;20462;-67
2021/05/26 08:25:01;;;;;;;5.47;1.35;;;19.40;36.20;;;17.45;42.40;95952.16;4993204;28;20040;-67
2021/05/26 08:27:27;;;;;;;9.30;2.60;;;19.10;36.60;;;17.30;42.33;95949.97;5009076;28;20530;-68
2021/05/26 08:29:55;;;;;;;7.40;3.88;;;19.00;37.30;;;17.20;42.02;95959.59;5004402;28;20038;-66
2021/05/26 08:32:22;;;;;;;4.85;3.40;;;18.80;38.10;;;17.14;43.01;95956.00;5003509;28;20068;-67
2021/05/26 08:34:49;;;;;;;1.40;0.88;;;19.00;38.50;;;17.12;43.06;95945.63;5006198;28;20034;-67
2021/05/26 08:37:16;;;;;;;2.90;0.90;;;19.10;38.50;;;17.17;43.18;95954.72;5015572;28;20072;-68
2021/05/26 08:39:41;;;;;;;3.33;0.90;;;19.20;38.10;;;17.15;43.15;95953.13;4990767;28;20122;-66
2021/05/26 08:42:08;;;;;;;2.95;1.00;;;19.10;38.30;;;17.20;43.00;95951.59;4991628;28;20063;-68
2021/05/26 08:44:34;;;;;;;3.08;0.70;;;19.40;38.60;;;17.18;43.38;95935.91;5002142;28;20042;-68
2021/05/26 08:46:59;;;;;;;2.40;0.80;;;19.20;38.60;;;17.24;43.14;95936.84;5008327;28;20037;-67
2021/05/26 08:49:25;;;;;;;2.00;0.52;;;19.30;38.20;;;17.23;43.20;95935.22;4987164;28;20114;-67
2021/05/26 08:51:51;;;;;;;1.73;0.68;;;19.10;38.40;;;17.18;43.59;95932.44;5007522;28;20614;-68
2021/05/26 08:54:17;;;;;;;2.55;0.55;;;19.10;39.40;;;17.13;43.29;95931.28;5026593;28;20036;-67
2021/05/26 08:56:44;;;;;;;1.20;0.50;;;18.90;39.20;;;17.10;43.15;95944.25;4997365;28;20048;-67
2021/05/26 08:59:15;;;;;;;2.03;0.50;;;18.80;39.30;;;16.97;43.30;95939.97;5002830;28;20388;-67
2021/05/26 09:01:46;;;;;;;;;;;18.70;40.50;;;16.78;43.54;95935.84;5009035;28;20045;-67
2021/05/26 09:04:35;;;;;;;3.90;0.80;;;18.30;40.90;;;16.68;43.48;95922.31;5004512;28;19928;-67
2021/05/26 09:07:22;;;;;;;2.10;1.05;;;18.40;40.80;;;16.59;44.96;95927.16;4988364;28;20057;-69
2021/05/26 09:09:55;;;;;;;1.65;0.47;;;18.30;41.60;;;16.54;44.70;95925.19;4994588;28;20128;-68
2021/05/26 09:12:37;;;;;;;4.40;1.70;;;18.40;41.60;;;16.51;45.12;95924.81;5019020;28;20409;-67
2021/05/26 09:15:11;;;;;;;2.08;0.75;;;18.40;42.40;;;16.52;44.55;95929.94;5001740;28;20521;-66
2021/05/26 09:17:37;;;;;;;1.42;0.60;;;18.50;41.70;;;16.56;44.99;95935.59;5014878;28;20061;-67
2021/05/26 09:20:12;;;;;;;2.55;0.70;;;18.40;40.80;;;16.60;44.72;95927.97;5006404;28;20038;-67
2021/05/26 09:22:41;;;;;;;1.70;0.60;;;18.50;40.80;;;16.63;44.02;95932.81;5008248;28;20044;-66
2021/05/26 09:25:08;;;;;;;4.10;2.08;;;18.50;39.80;;;16.66;44.81;95930.53;5007317;28;20106;-66
2021/05/26 09:27:33;;;;;;;8.38;3.72;;;18.60;39.90;;;16.71;43.98;95922.66;4999766;28;20141;-66
2021/05/26 09:29:59;;;;;;;4.38;1.13;;;18.70;40.00;;;16.73;44.43;95903.84;5013760;28;20061;-66
2021/05/26 09:32:32;;;;;;;7.47;3.30;;;18.70;39.50;;;16.75;44.46;95904.44;5011371;28;20035;-67
2021/05/26 09:34:58;;;;;;;14.88;9.52;;;18.70;39.40;;;16.79;44.21;95909.03;4980100;28;20034;-67
2021/05/26 09:37:30;;;;;;;4.20;2.00;;;18.70;40.60;;;16.84;42.73;95897.72;4990510;28;20042;-66
2021/05/26 09:40:07;;;;;;;2.65;1.02;;;18.80;38.90;;;16.94;42.75;95886.50;4994325;28;20041;-67
2021/05/26 09:42:37;;;;;;;3.50;1.00;;;19.10;38.30;;;16.99;42.10;95890.09;5010368;28;20061;-68
2021/05/26 09:45:14;;;;;;;2.20;0.70;;;19.20;36.80;;;17.04;42.28;95892.84;4991932;28;20057;-69
2021/05/26 09:47:51;;;;;;;1.70;0.70;;;19.10;37.70;;;17.07;41.76;95889.72;4976540;28;20581;-67
2021/05/26 09:50:19;;;;;;;4.07;0.80;;;19.00;37.20;;;17.05;42.86;95894.44;4990129;28;20093;-69
2021/05/26 09:53:15;;;;;;;4.30;0.70;;;18.90;38.10;;;17.05;41.75;95904.28;4991576;28;20039;-69
2021/05/26 09:55:45;;;;;;;2.53;0.65;;;19.00;38.20;;;17.07;42.11;95903.00;4997233;28;20034;-67
2021/05/26 09:58:13;;;;;;;1.98;0.70;;;19.00;39.10;;;17.05;42.79;95902.44;5010971;28;20512;-66
2021/05/26 10:00:40;;;;;;;3.42;1.00;;;18.70;37.60;;;17.05;42.82;95905.09;4986933;28;20519;-68
2021/05/26 10:03:06;;;;;;;3.13;0.80;;;18.90;38.20;;;17.07;42.80;95908.31;5003566;28;20049;-68
2021/05/26 10:05:34;;;;;;;2.70;0.82;;;19.00;38.10;;;17.07;42.67;95897.69;5008063;28;20034;-68
2021/05/26 10:08:01;;;;;;;2.65;0.80;;;18.90;38.00;;;17.14;42.03;95893.03;5007974;28;20061;-68
2021/05/26 10:10:29;;;;;;;3.45;0.70;;;19.10;36.80;;;17.20;42.07;95890.47;5010438;28;20041;-68
2021/05/26 10:13:00;;;;;;;5.28;0.73;;;19.30;37.20;;;17.34;42.69;95892.63;4999495;28;20035;-68
2021/05/26 10:15:30;;;;;;;3.05;0.70;;;19.70;38.00;;;17.49;41.89;95886.81;4991057;28;20030;-71
2021/05/26 10:17:57;;;;;;;2.50;0.90;;;19.60;37.10;;;17.60;42.76;95896.59;4990849;28;20041;-65
2021/05/26 10:20:35;;;;;;;4.20;1.25;;;19.80;38.50;;;17.61;41.15;95895.53;4990918;28;20042;-69